createdAt,value
2022-11-25T00:00:49.429Z,2.75
2022-11-25T00:03:15.839Z,2.10
2022-11-25T00:05:42.349Z,2.10
2022-11-25T00:08:08.941Z,2.63
2022-11-25T00:10:35.419Z,2.20
2022-11-25T00:13:01.834Z,2.50
2022-11-25T00:15:28.148Z,2.22
2022-11-25T00:17:54.517Z,2.63
2022-11-25T00:20:20.846Z,2.72
2022-11-25T00:22:47.212Z,2.30
2022-11-25T00:25:13.669Z,2.40
2022-11-25T00:27:40.041Z,2.53
2022-11-25T00:30:07.237Z,2.42
2022-11-25T00:32:33.586Z,2.15
2022-11-25T00:34:59.937Z,2.38
2022-11-25T00:37:26.281Z,2.55
2022-11-25T00:39:52.629Z,2.70
2022-11-25T00:42:18.979Z,2.35
2022-11-25T00:44:45.374Z,2.42
2022-11-25T00:47:15.849Z,2.40
2022-11-25T00:49:45.166Z,2.42
2022-11-25T00:52:15.645Z,2.40
2022-11-25T00:54:42.224Z,2.00
2022-11-25T00:57:08.582Z,2.35
2022-11-25T00:59:34.935Z,2.20
2022-11-25T01:02:01.335Z,2.90
2022-11-25T01:04:27.669Z,2.30
2022-11-25T01:06:54.289Z,2.70
2022-11-25T01:09:20.636Z,3.13
2022-11-25T01:11:50.178Z,2.70
2022-11-25T01:14:16.625Z,2.53
2022-11-25T01:16:43.020Z,2.47
2022-11-25T01:19:11.200Z,2.47
2022-11-25T01:21:37.601Z,2.63
2022-11-25T01:24:05.725Z,2.40
2022-11-25T01:26:33.247Z,2.70
2022-11-25T01:29:01.817Z,2.70
2022-11-25T01:31:31.061Z,2.53
2022-11-25T01:34:00.969Z,2.67
2022-11-25T01:36:28.365Z,2.72
2022-11-25T01:38:57.125Z,2.55
2022-11-25T01:41:25.466Z,2.30
2022-11-25T01:44:12.178Z,2.30
2022-11-25T01:47:00.761Z,2.65
2022-11-25T01:49:42.149Z,2.97
2022-11-25T01:52:33.536Z,2.55
2022-11-25T01:55:05.183Z,3.03
2022-11-25T01:57:37.523Z,2.70
2022-11-25T02:00:06.014Z,2.65
2022-11-25T02:02:32.621Z,3.28
2022-11-25T02:05:01.248Z,3.22
2022-11-25T02:07:38.341Z,2.47
2022-11-25T02:10:11.817Z,3.13
2022-11-25T02:12:41.099Z,2.30
2022-11-25T02:15:08.233Z,3.10
2022-11-25T02:17:34.957Z,2.60
2022-11-25T02:20:07.897Z,2.50
2022-11-25T02:22:52.971Z,2.05
2022-11-25T02:25:28.097Z,2.80
2022-11-25T02:27:59.995Z,2.25
2022-11-25T02:30:26.361Z,2.35
2022-11-25T02:32:52.798Z,2.58
2022-11-25T02:35:33.113Z,2.38
2022-11-25T02:38:04.682Z,2.80
2022-11-25T02:40:32.267Z,2.72
2022-11-25T02:43:00.398Z,2.58
2022-11-25T02:45:36.888Z,2.92
2022-11-25T02:48:03.494Z,2.70
2022-11-25T02:50:29.845Z,3.03
2022-11-25T02:52:56.193Z,2.58
2022-11-25T02:55:22.558Z,2.78
2022-11-25T02:57:48.892Z,3.33
2022-11-25T03:00:16.034Z,2.70
2022-11-25T03:02:42.479Z,2.90
2022-11-25T03:05:09.026Z,2.80
2022-11-25T03:07:35.380Z,2.85
2022-11-25T03:10:01.806Z,2.70
2022-11-25T03:12:28.211Z,2.85
2022-11-25T03:14:54.534Z,3.13
2022-11-25T03:17:21.063Z,2.58
2022-11-25T03:19:47.413Z,2.83
2022-11-25T03:22:13.917Z,3.05
2022-11-25T03:24:40.349Z,3.15
2022-11-25T03:27:06.707Z,3.28
2022-11-25T03:29:33.079Z,3.15
2022-11-25T03:31:59.477Z,3.30
2022-11-25T03:34:26.052Z,2.72
2022-11-25T03:36:52.483Z,3.05
2022-11-25T03:39:18.908Z,3.42
2022-11-25T03:41:45.253Z,3.55
2022-11-25T03:44:11.557Z,3.65
2022-11-25T03:46:37.915Z,3.28
2022-11-25T03:49:04.269Z,3.22
2022-11-25T03:51:30.748Z,3.35
2022-11-25T03:53:57.115Z,3.05
2022-11-25T03:56:23.513Z,3.67
2022-11-25T03:58:49.873Z,3.15
2022-11-25T04:01:16.292Z,3.30
2022-11-25T04:03:42.691Z,4.25
2022-11-25T04:06:09.273Z,3.20
2022-11-25T04:08:35.614Z,3.28
2022-11-25T04:11:02.162Z,3.50
2022-11-25T04:13:28.989Z,3.65
2022-11-25T04:15:55.363Z,2.80
2022-11-25T04:18:21.701Z,3.08
2022-11-25T04:20:48.046Z,4.32
2022-11-25T04:23:14.680Z,3.00
2022-11-25T04:25:41.038Z,3.60
2022-11-25T04:28:07.464Z,3.22
2022-11-25T04:30:33.979Z,2.90
2022-11-25T04:33:01.351Z,3.67
2022-11-25T04:35:27.716Z,2.67
2022-11-25T04:37:54.084Z,3.03
2022-11-25T04:40:20.470Z,3.13
2022-11-25T04:42:46.991Z,3.42
2022-11-25T04:45:24.327Z,3.47
2022-11-25T04:47:51.418Z,3.40
2022-11-25T04:50:21.896Z,2.88
2022-11-25T04:52:48.303Z,3.03
2022-11-25T04:55:14.785Z,3.30
2022-11-25T04:57:41.140Z,3.13
2022-11-25T05:00:08.804Z,3.20
2022-11-25T05:02:35.961Z,3.30
2022-11-25T05:05:02.316Z,3.25
2022-11-25T05:07:29.451Z,3.38
2022-11-25T05:09:56.706Z,3.55
2022-11-25T05:12:28.703Z,3.92
2022-11-25T05:14:55.838Z,3.60
2022-11-25T05:17:26.367Z,4.18
2022-11-25T05:19:52.714Z,3.55
2022-11-25T05:22:23.221Z,3.60
2022-11-25T05:24:49.633Z,4.07
2022-11-25T05:27:16.516Z,3.30
2022-11-25T05:29:42.886Z,3.80
2022-11-25T05:32:09.630Z,3.20
2022-11-25T05:34:37.253Z,3.33
2022-11-25T05:37:04.606Z,3.60
2022-11-25T05:39:31.142Z,3.22
2022-11-25T05:41:57.528Z,3.60
2022-11-25T05:44:23.983Z,3.65
2022-11-25T05:46:50.449Z,3.42
2022-11-25T05:49:18.733Z,3.00
2022-11-25T05:51:45.449Z,2.88
2022-11-25T05:54:12.064Z,3.00
2022-11-25T05:56:38.468Z,3.28
2022-11-25T05:59:05.465Z,2.90
2022-11-25T06:01:32.217Z,3.00
2022-11-25T06:04:03.944Z,2.70
2022-11-25T06:06:31.302Z,2.80
2022-11-25T06:08:57.657Z,2.17
2022-11-25T06:11:24.051Z,2.33
2022-11-25T06:13:50.345Z,2.03
2022-11-25T06:18:45.224Z,2.00
2022-11-25T06:21:12.349Z,1.50
2022-11-25T06:23:39.165Z,1.48
2022-11-25T06:26:08.140Z,1.42
2022-11-25T06:28:34.533Z,1.60
2022-11-25T06:31:05.729Z,1.92
2022-11-25T06:33:32.414Z,1.77
2022-11-25T06:35:58.738Z,1.55
2022-11-25T06:38:25.051Z,1.60
2022-11-25T06:40:53.123Z,1.60
2022-11-25T06:43:20.485Z,1.63
2022-11-25T06:45:46.803Z,1.77
2022-11-25T06:48:13.145Z,2.05
2022-11-25T06:50:39.506Z,1.92
2022-11-25T06:53:05.818Z,2.45
2022-11-25T06:55:32.198Z,2.30
2022-11-25T06:58:13.870Z,2.25
2022-11-25T07:00:44.841Z,2.50
2022-11-25T07:03:11.243Z,2.75
2022-11-25T07:05:37.630Z,2.70
2022-11-25T07:08:04.139Z,2.85
2022-11-25T07:10:30.462Z,2.35
2022-11-25T07:12:56.784Z,2.80
2022-11-25T07:15:23.116Z,2.92
2022-11-25T07:17:49.438Z,2.72
2022-11-25T07:20:15.869Z,2.63
2022-11-25T07:22:42.173Z,2.80
2022-11-25T07:25:09.029Z,2.50
2022-11-25T07:27:35.353Z,2.90
2022-11-25T07:30:54.316Z,3.10
2022-11-25T07:32:48.047Z,3.10
2022-11-25T07:35:14.388Z,2.75
2022-11-25T07:37:40.774Z,3.17
2022-11-25T07:40:07.982Z,2.78
2022-11-25T07:42:34.287Z,2.65
2022-11-25T07:45:00.606Z,2.65
2022-11-25T07:47:26.942Z,2.97
2022-11-25T07:49:53.267Z,2.72
2022-11-25T07:52:19.617Z,2.90
2022-11-25T07:54:46.076Z,3.00
2022-11-25T07:57:12.423Z,2.72
2022-11-25T07:59:39.080Z,2.70
2022-11-25T08:02:06.055Z,3.00
2022-11-25T08:04:32.479Z,2.70
2022-11-25T08:06:58.789Z,2.63
2022-11-25T08:09:25.149Z,2.58
2022-11-25T08:11:52.090Z,2.72
2022-11-25T08:14:18.761Z,2.78
2022-11-25T08:16:45.530Z,2.78
2022-11-25T08:19:14.908Z,2.42
2022-11-25T08:21:42.022Z,2.50
2022-11-25T08:24:16.831Z,2.40
2022-11-25T08:26:43.175Z,2.60
2022-11-25T08:29:15.524Z,2.53
2022-11-25T08:31:42.377Z,2.30
2022-11-25T08:34:09.194Z,2.33
2022-11-25T08:36:36.195Z,2.47
2022-11-25T08:39:28.939Z,2.45
2022-11-25T08:41:53.661Z,2.70
2022-11-25T08:44:20.002Z,2.38
2022-11-25T08:46:46.451Z,2.30
2022-11-25T08:49:13.601Z,2.40
2022-11-25T08:51:40.018Z,2.20
2022-11-25T08:54:08.328Z,2.63
2022-11-25T08:56:35.276Z,2.40
2022-11-25T08:59:02.086Z,2.78
2022-11-25T09:01:28.934Z,2.47
2022-11-25T09:03:57.152Z,2.58
2022-11-25T09:06:25.758Z,2.60
2022-11-25T09:08:55.524Z,3.15
2022-11-25T09:11:22.012Z,2.50
2022-11-25T09:13:48.448Z,2.40
2022-11-25T09:16:14.932Z,2.20
2022-11-25T09:18:41.317Z,2.47
2022-11-25T09:21:10.319Z,2.70
2022-11-25T09:23:37.509Z,2.25
2022-11-25T09:26:04.852Z,2.50
2022-11-25T09:28:31.395Z,2.42
2022-11-25T09:30:57.841Z,2.50
2022-11-25T09:33:24.242Z,2.42
2022-11-25T09:35:50.608Z,2.45
2022-11-25T09:38:17.098Z,2.50
2022-11-25T09:40:48.258Z,2.20
2022-11-25T09:43:39.553Z,2.10
2022-11-25T09:46:32.716Z,2.30
2022-11-25T09:49:24.650Z,2.30
2022-11-25T09:52:03.016Z,2.20
2022-11-25T09:54:36.724Z,2.47
2022-11-25T09:57:18.300Z,2.20
2022-11-25T09:59:56.594Z,2.40
2022-11-25T10:02:32.784Z,2.30
2022-11-25T10:05:08.608Z,2.20
2022-11-25T10:07:39.875Z,2.22
2022-11-25T10:10:15.469Z,2.35
2022-11-25T10:12:44.553Z,2.28
2022-11-25T10:15:27.869Z,2.20
2022-11-25T10:18:00.356Z,2.80
2022-11-25T10:20:35.193Z,2.38
2022-11-25T10:23:28.160Z,2.70
2022-11-25T10:26:02.928Z,2.60
2022-11-25T10:28:33.960Z,2.60
2022-11-25T10:31:17.684Z,2.50
2022-11-25T10:33:46.162Z,2.40
2022-11-25T10:36:19.888Z,2.50
2022-11-25T10:39:11.213Z,2.50
2022-11-25T10:41:45.828Z,2.45
2022-11-25T10:44:24.831Z,2.22
2022-11-25T10:47:33.427Z,2.63
2022-11-25T10:50:04.610Z,3.03
2022-11-25T10:52:37.324Z,2.65
2022-11-25T10:55:16.375Z,2.47
2022-11-25T10:57:42.991Z,2.50
2022-11-25T11:00:28.116Z,2.50
2022-11-25T11:02:55.823Z,2.50
2022-11-25T11:05:24.815Z,2.65
2022-11-25T11:08:09.605Z,2.70
2022-11-25T11:10:36.375Z,2.45
2022-11-25T11:13:06.192Z,2.58
2022-11-25T11:15:41.961Z,2.28
2022-11-25T11:18:24.853Z,2.28
2022-11-25T11:20:54.004Z,2.40
2022-11-25T11:23:20.793Z,2.30
2022-11-25T11:26:00.800Z,2.45
2022-11-25T11:28:40.071Z,2.63
2022-11-25T11:31:32.096Z,2.00
2022-11-25T11:34:13.390Z,2.22
2022-11-25T11:37:00.428Z,2.45
2022-11-25T11:39:35.825Z,2.38
2022-11-25T11:42:37.718Z,2.15
2022-11-25T11:45:28.928Z,2.28
2022-11-25T11:48:33.532Z,2.22
2022-11-25T11:51:14.241Z,2.00
2022-11-25T11:53:54.205Z,2.47
2022-11-25T11:56:44.079Z,3.03
2022-11-25T11:59:21.406Z,2.38
2022-11-25T12:02:05.755Z,2.55
2022-11-25T12:04:53.894Z,2.17
2022-11-25T12:07:44.921Z,2.33
2022-11-25T12:10:14.007Z,2.60
2022-11-25T12:12:48.847Z,2.70
2022-11-25T12:15:25.215Z,2.80
2022-11-25T12:17:57.098Z,2.58
2022-11-25T12:20:59.573Z,3.05
2022-11-25T12:23:42.936Z,2.70
2022-11-25T12:26:14.955Z,3.28
2022-11-25T12:29:00.662Z,3.85
2022-11-25T12:31:31.342Z,3.53
2022-11-25T12:34:16.893Z,2.97
2022-11-25T12:36:47.194Z,3.15
2022-11-25T12:39:31.948Z,3.30
2022-11-25T12:42:02.041Z,3.20
2022-11-25T12:44:40.459Z,3.33
2022-11-25T12:47:11.325Z,3.13
2022-11-25T12:49:44.758Z,3.25
2022-11-25T12:52:17.262Z,3.33
2022-11-25T12:54:52.783Z,3.00
2022-11-25T12:57:49.208Z,3.03
2022-11-25T13:03:21.859Z,3.20
2022-11-25T13:06:40.579Z,2.65
2022-11-25T13:09:22.199Z,3.05
2022-11-25T13:12:02.958Z,3.08
2022-11-25T13:15:11.774Z,2.53
2022-11-25T13:17:42.923Z,2.65
2022-11-25T13:20:46.158Z,2.90
2022-11-25T13:23:16.572Z,2.67
2022-11-25T13:25:45.992Z,2.80
2022-11-25T13:28:32.043Z,3.10
2022-11-25T13:31:13.852Z,3.42
2022-11-25T13:33:43.165Z,2.90
2022-11-25T13:36:24.005Z,3.13
2022-11-25T13:38:50.286Z,2.97
2022-11-25T13:41:16.562Z,3.00
2022-11-25T13:44:11.721Z,2.80
2022-11-25T13:46:49.934Z,2.72
2022-11-25T13:49:25.326Z,2.83
2022-11-25T13:54:34.660Z,2.65
2022-11-25T13:57:18.511Z,2.67
2022-11-25T13:59:50.801Z,2.85
2022-11-25T14:02:33.756Z,2.90
2022-11-25T14:05:38.153Z,2.60
2022-11-25T14:08:29.219Z,2.85
2022-11-25T14:11:10.880Z,3.00
2022-11-25T14:13:58.730Z,3.35
2022-11-25T14:16:48.885Z,2.90
2022-11-25T14:22:38.688Z,2.78
2022-11-25T14:25:23.809Z,2.33
2022-11-25T14:28:02.354Z,3.55
2022-11-25T14:30:31.409Z,2.92
2022-11-25T14:33:04.857Z,3.15
2022-11-25T14:35:41.670Z,2.80
2022-11-25T14:38:19.555Z,2.97
2022-11-25T14:41:13.121Z,2.85
2022-11-25T14:43:48.669Z,2.70
2022-11-25T14:46:21.057Z,2.80
2022-11-25T14:48:56.581Z,2.60
2022-11-25T14:51:25.006Z,2.80
2022-11-25T14:53:52.484Z,2.60
2022-11-25T14:56:26.308Z,2.85
2022-11-25T14:58:54.962Z,2.75
2022-11-25T15:01:23.277Z,2.90
2022-11-25T15:03:51.769Z,3.03
2022-11-25T15:06:18.510Z,2.95
2022-11-25T15:08:46.960Z,3.10
2022-11-25T15:11:20.077Z,3.00
2022-11-25T15:14:06.179Z,2.90
2022-11-25T15:16:36.641Z,3.75
2022-11-25T15:19:05.367Z,2.70
2022-11-25T15:22:07.067Z,3.25
2022-11-25T15:24:31.756Z,2.63
2022-11-25T15:27:00.892Z,2.80
2022-11-25T15:29:31.237Z,2.95
2022-11-25T15:32:00.149Z,3.10
2022-11-25T15:34:29.632Z,3.17
2022-11-25T15:36:56.116Z,2.90
2022-11-25T15:39:27.342Z,3.20
2022-11-25T15:42:05.884Z,2.90
2022-11-25T15:44:35.946Z,3.20
2022-11-25T15:47:23.964Z,2.95
2022-11-25T15:50:26.361Z,3.20
2022-11-25T15:52:59.631Z,3.00
2022-11-25T15:55:34.850Z,2.92
2022-11-25T15:58:23.526Z,2.83
2022-11-25T16:01:14.961Z,2.63
2022-11-25T16:03:41.643Z,2.70
2022-11-25T16:06:21.662Z,3.28
2022-11-25T16:09:02.059Z,3.10
2022-11-25T16:11:29.999Z,3.15
2022-11-25T16:14:26.605Z,3.00
2022-11-25T16:17:01.843Z,3.13
2022-11-25T16:19:37.821Z,2.83
2022-11-25T16:22:05.364Z,3.10
2022-11-25T16:24:50.741Z,2.70
2022-11-25T16:27:23.671Z,3.25
2022-11-25T16:29:52.924Z,3.40
2022-11-25T16:32:22.481Z,3.20
2022-11-25T16:34:48.835Z,3.53
2022-11-25T16:37:15.170Z,3.05
2022-11-25T16:39:42.492Z,2.85
2022-11-25T16:42:17.314Z,3.67
2022-11-25T16:44:46.693Z,3.58
2022-11-25T16:47:13.010Z,3.28
2022-11-25T16:49:39.710Z,3.25
2022-11-25T16:52:06.177Z,3.10
2022-11-25T16:54:32.501Z,2.60
2022-11-25T16:56:58.954Z,3.17
2022-11-25T16:59:31.630Z,3.05
2022-11-25T17:02:00.266Z,3.50
2022-11-25T17:04:26.818Z,3.47
2022-11-25T17:07:30.573Z,3.47
2022-11-25T17:09:42.144Z,3.90
2022-11-25T17:12:18.407Z,4.57
2022-11-25T17:14:46.816Z,4.35
2022-11-25T17:17:24.160Z,4.25
2022-11-25T17:19:51.886Z,3.97
2022-11-25T17:22:21.511Z,4.38
2022-11-25T17:24:48.571Z,4.20
2022-11-25T17:27:24.522Z,3.35
2022-11-25T17:29:51.604Z,4.40
2022-11-25T17:32:18.111Z,4.18
2022-11-25T17:34:44.531Z,3.90
2022-11-25T17:37:14.376Z,3.80
2022-11-25T17:39:40.771Z,4.45
2022-11-25T17:42:07.165Z,4.97
2022-11-25T17:44:33.689Z,4.30
2022-11-25T17:47:00.051Z,4.30
2022-11-25T17:49:26.396Z,5.07
2022-11-25T17:51:53.496Z,5.47
2022-11-25T17:54:19.850Z,5.68
2022-11-25T17:56:52.013Z,5.28
2022-11-25T17:59:36.803Z,5.43
2022-11-25T18:02:03.254Z,5.88
2022-11-25T18:04:33.483Z,5.63
2022-11-25T18:07:00.114Z,5.43
2022-11-25T18:09:26.671Z,6.15
2022-11-25T18:11:56.517Z,6.00
2022-11-25T18:14:33.593Z,6.50
2022-11-25T18:17:06.047Z,6.72
2022-11-25T18:19:33.441Z,6.28
2022-11-25T18:22:08.929Z,5.95
2022-11-25T18:24:35.277Z,6.30
2022-11-25T18:27:01.577Z,6.57
2022-11-25T18:31:55.163Z,6.28
2022-11-25T18:34:22.546Z,5.88
2022-11-25T18:36:49.939Z,6.25
2022-11-25T18:39:16.539Z,6.30
2022-11-25T18:41:44.404Z,6.63
2022-11-25T18:44:29.212Z,6.00
2022-11-25T18:46:55.640Z,6.10
2022-11-25T18:49:22.294Z,6.50
2022-11-25T18:51:48.622Z,7.03
2022-11-25T18:54:14.990Z,7.00
2022-11-25T18:56:41.596Z,5.55
2022-11-25T18:59:14.709Z,6.60
2022-11-25T19:01:44.164Z,6.47
2022-11-25T19:04:15.967Z,7.90
2022-11-25T19:06:42.523Z,7.85
2022-11-25T19:09:09.044Z,6.80
2022-11-25T19:11:38.181Z,6.53
2022-11-25T19:14:25.082Z,7.30
2022-11-25T19:16:51.946Z,7.35
2022-11-25T19:19:18.536Z,8.18
2022-11-25T19:21:44.849Z,8.35
2022-11-25T19:24:15.744Z,9.82
2022-11-25T19:26:46.340Z,8.82
2022-11-25T19:29:27.370Z,8.82
2022-11-25T19:31:56.719Z,9.65
2022-11-25T19:34:30.045Z,9.10
2022-11-25T19:36:56.398Z,8.25
2022-11-25T19:39:22.868Z,7.53
2022-11-25T19:41:49.395Z,8.48
2022-11-25T19:44:15.776Z,9.40
2022-11-25T19:47:13.346Z,7.38
2022-11-25T19:49:31.977Z,7.07
2022-11-25T19:51:58.330Z,7.75
2022-11-25T19:54:24.702Z,7.63
2022-11-25T19:56:51.102Z,6.70
2022-11-25T19:59:17.429Z,6.93
2022-11-25T20:04:22.086Z,6.38
2022-11-25T20:06:49.265Z,6.05
2022-11-25T20:09:15.623Z,7.70
2022-11-25T20:11:42.588Z,8.98
2022-11-25T20:14:08.928Z,8.50
2022-11-25T20:16:37.645Z,8.68
2022-11-25T20:19:04.714Z,9.70
2022-11-25T20:21:36.098Z,9.20
2022-11-25T20:24:04.612Z,10.10
2022-11-25T20:26:35.911Z,10.40
2022-11-25T20:29:10.452Z,10.63
2022-11-25T20:31:36.881Z,12.43
2022-11-25T20:34:03.266Z,8.60
2022-11-25T20:36:32.353Z,10.43
2022-11-25T20:39:00.442Z,8.88
2022-11-25T20:41:28.283Z,9.23
2022-11-25T20:43:56.222Z,8.82
2022-11-25T20:46:25.390Z,8.80
2022-11-25T20:48:55.296Z,8.45
2022-11-25T20:51:23.082Z,8.85
2022-11-25T20:53:55.701Z,9.82
2022-11-25T20:56:24.699Z,10.02
2022-11-25T20:58:51.334Z,9.82
2022-11-25T21:01:18.164Z,9.55
2022-11-25T21:03:45.409Z,10.32
2022-11-25T21:06:28.659Z,10.07
2022-11-25T21:08:57.631Z,11.52
2022-11-25T21:11:24.449Z,11.27
2022-11-25T21:13:51.058Z,11.63
2022-11-25T21:16:17.942Z,12.05
2022-11-25T21:18:44.304Z,12.68
2022-11-25T21:23:40.580Z,10.77
2022-11-25T21:26:19.924Z,10.75
2022-11-25T21:28:47.968Z,10.40
2022-11-25T21:31:17.060Z,10.27
2022-11-25T21:33:45.168Z,11.32
2022-11-25T21:36:18.107Z,11.63
2022-11-25T21:38:46.255Z,11.25
2022-11-25T21:41:13.065Z,12.30
2022-11-25T21:43:45.253Z,11.98
2022-11-25T21:46:19.827Z,11.32
2022-11-25T21:48:46.870Z,12.65
2022-11-25T21:51:16.036Z,20.52
2022-11-25T21:53:42.389Z,13.65
2022-11-25T21:58:46.794Z,9.75
2022-11-25T22:01:23.480Z,11.15
2022-11-25T22:03:50.583Z,11.07
2022-11-25T22:06:29.069Z,12.98
2022-11-25T22:08:56.133Z,11.95
2022-11-25T22:11:31.714Z,13.15
2022-11-25T22:13:59.472Z,11.60
2022-11-25T22:16:35.494Z,11.88
2022-11-25T22:19:02.183Z,11.57
2022-11-25T22:21:28.505Z,10.95
2022-11-25T22:23:54.979Z,14.38
2022-11-25T22:28:53.672Z,9.80
2022-11-25T22:31:23.012Z,12.88
2022-11-25T22:33:49.661Z,14.18
2022-11-25T22:36:35.925Z,24.05
2022-11-25T22:39:20.407Z,19.85
2022-11-25T22:42:03.224Z,19.25
2022-11-25T22:44:37.970Z,15.38
2022-11-25T22:47:06.023Z,15.63
2022-11-25T22:49:36.430Z,15.45
2022-11-25T22:52:02.907Z,14.27
2022-11-25T22:54:29.445Z,13.02
2022-11-25T22:56:56.259Z,15.68
2022-11-25T22:59:22.682Z,15.98
2022-11-25T23:04:19.819Z,14.80
2022-11-25T23:06:47.436Z,10.02
2022-11-25T23:09:18.294Z,12.45
2022-11-25T23:11:45.919Z,13.43
2022-11-25T23:14:12.662Z,12.98
2022-11-25T23:16:40.577Z,13.40
2022-11-25T23:19:13.958Z,13.60
2022-11-25T23:21:40.440Z,15.45
2022-11-25T23:24:13.255Z,9.70
2022-11-25T23:26:39.808Z,9.93
2022-11-25T23:29:06.234Z,10.23
2022-11-25T23:31:36.182Z,8.63
2022-11-25T23:34:04.879Z,9.68
2022-11-25T23:36:38.598Z,10.10
2022-11-25T23:39:04.965Z,9.70
2022-11-25T23:44:10.495Z,7.93
2022-11-25T23:46:37.350Z,8.95
2022-11-25T23:49:04.362Z,10.73
2022-11-25T23:51:30.960Z,8.57
2022-11-25T23:53:58.760Z,9.13
2022-11-25T23:56:27.102Z,10.60
2022-11-25T23:58:53.444Z,9.80
